sensor_id;sensor_type;location;lat;lon;timestamp;P1;durP1;ratioP1;P2;durP2;ratioP2
21833;SDS011;11079;51.092;3.458;2023-12-14T08:44:20;12.18;;;6.57;;
21833;SDS011;11079;51.092;3.458;2023-12-14T08:47:01;12.20;;;6.72;;
21833;SDS011;11079;51.092;3.458;2023-12-14T08:57:59;11.50;;;7.13;;
21833;SDS011;11079;51.092;3.458;2023-12-14T09:00:43;14.25;;;7.50;;
21833;SDS011;11079;51.092;3.458;2023-12-14T09:03:14;17.90;;;6.75;;
21833;SDS011;11079;51.092;3.458;2023-12-14T09:05:52;14.85;;;6.82;;
21833;SDS011;11079;51.092;3.458;2023-12-14T09:08:23;14.00;;;6.38;;
21833;SDS011;11079;51.092;3.458;2023-12-14T09:10:52;11.13;;;6.10;;
21833;SDS011;11079;51.092;3.458;2023-12-14T09:13:23;14.52;;;7.18;;
21833;SDS011;11079;51.092;3.458;2023-12-14T09:16:40;13.13;;;6.68;;
21833;SDS011;11079;51.092;3.458;2023-12-14T09:19:12;15.05;;;6.95;;
21833;SDS011;11079;51.092;3.458;2023-12-14T09:21:46;15.60;;;6.35;;
21833;SDS011;11079;51.092;3.458;2023-12-14T09:24:26;15.93;;;7.32;;
21833;SDS011;11079;51.092;3.458;2023-12-14T09:30:08;14.50;;;7.32;;
21833;SDS011;11079;51.092;3.458;2023-12-14T09:32:45;16.38;;;6.93;;
21833;SDS011;11079;51.092;3.458;2023-12-14T09:35:13;12.00;;;6.38;;
21833;SDS011;11079;51.092;3.458;2023-12-14T09:37:43;10.55;;;6.00;;
21833;SDS011;11079;51.092;3.458;2023-12-14T09:40:34;14.13;;;7.60;;
21833;SDS011;11079;51.092;3.458;2023-12-14T09:54:28;14.63;;;6.63;;
21833;SDS011;11079;51.092;3.458;2023-12-14T10:01:20;12.57;;;7.20;;
21833;SDS011;11079;51.092;3.458;2023-12-14T10:04:03;14.48;;;6.65;;
21833;SDS011;11079;51.092;3.458;2023-12-14T10:06:55;12.98;;;7.10;;
21833;SDS011;11079;51.092;3.458;2023-12-14T10:09:32;14.30;;;7.15;;
21833;SDS011;11079;51.092;3.458;2023-12-14T10:12:15;13.55;;;7.20;;
21833;SDS011;11079;51.092;3.458;2023-12-14T10:15:13;14.77;;;6.55;;
21833;SDS011;11079;51.092;3.458;2023-12-14T10:17:45;17.13;;;7.28;;
21833;SDS011;11079;51.092;3.458;2023-12-14T10:20:21;10.68;;;5.68;;
21833;SDS011;11079;51.092;3.458;2023-12-14T10:22:49;11.40;;;6.85;;
21833;SDS011;11079;51.092;3.458;2023-12-14T10:25:29;14.13;;;6.13;;
21833;SDS011;11079;51.092;3.458;2023-12-14T10:27:56;12.35;;;6.70;;
21833;SDS011;11079;51.092;3.458;2023-12-14T10:30:39;13.10;;;6.18;;
21833;SDS011;11079;51.092;3.458;2023-12-14T10:33:11;10.10;;;5.10;;
21833;SDS011;11079;51.092;3.458;2023-12-14T10:35:39;11.68;;;5.85;;
21833;SDS011;11079;51.092;3.458;2023-12-14T10:38:07;9.65;;;5.40;;
21833;SDS011;11079;51.092;3.458;2023-12-14T10:40:43;8.45;;;4.93;;
21833;SDS011;11079;51.092;3.458;2023-12-14T10:43:17;9.68;;;5.10;;
21833;SDS011;11079;51.092;3.458;2023-12-14T10:45:53;13.70;;;5.03;;
21833;SDS011;11079;51.092;3.458;2023-12-14T10:48:32;8.48;;;5.13;;
21833;SDS011;11079;51.092;3.458;2023-12-14T10:51:11;10.02;;;5.45;;
21833;SDS011;11079;51.092;3.458;2023-12-14T10:54:04;8.68;;;5.20;;
21833;SDS011;11079;51.092;3.458;2023-12-14T10:56:37;7.45;;;5.00;;
21833;SDS011;11079;51.092;3.458;2023-12-14T10:59:37;6.43;;;5.20;;
21833;SDS011;11079;51.092;3.458;2023-12-14T11:02:42;9.40;;;4.70;;
21833;SDS011;11079;51.092;3.458;2023-12-14T11:05:35;9.25;;;5.20;;
21833;SDS011;11079;51.092;3.458;2023-12-14T11:08:44;13.05;;;5.55;;
21833;SDS011;11079;51.092;3.458;2023-12-14T11:11:13;8.50;;;4.85;;
21833;SDS011;11079;51.092;3.458;2023-12-14T11:13:52;8.23;;;4.97;;
21833;SDS011;11079;51.092;3.458;2023-12-14T11:16:22;7.10;;;5.20;;
21833;SDS011;11079;51.092;3.458;2023-12-14T11:24:53;6.82;;;4.60;;
21833;SDS011;11079;51.092;3.458;2023-12-14T11:27:43;11.82;;;4.63;;
21833;SDS011;11079;51.092;3.458;2023-12-14T11:30:11;12.48;;;4.97;;
21833;SDS011;11079;51.092;3.458;2023-12-14T11:44:28;10.05;;;5.63;;
21833;SDS011;11079;51.092;3.458;2023-12-14T11:47:05;10.63;;;5.55;;
21833;SDS011;11079;51.092;3.458;2023-12-14T11:49:31;12.38;;;6.00;;
21833;SDS011;11079;51.092;3.458;2023-12-14T11:51:57;8.75;;;5.13;;
21833;SDS011;11079;51.092;3.458;2023-12-14T12:10:01;9.20;;;3.13;;
21833;SDS011;11079;51.092;3.458;2023-12-14T12:12:34;8.32;;;2.35;;
21833;SDS011;11079;51.092;3.458;2023-12-14T12:15:01;6.25;;;2.72;;
21833;SDS011;11079;51.092;3.458;2023-12-14T12:17:32;5.55;;;1.70;;
21833;SDS011;11079;51.092;3.458;2023-12-14T12:23:02;5.13;;;1.42;;
21833;SDS011;11079;51.092;3.458;2023-12-14T12:25:36;5.78;;;1.92;;
21833;SDS011;11079;51.092;3.458;2023-12-14T15:42:05;8.05;;;2.70;;
21833;SDS011;11079;51.092;3.458;2023-12-14T15:51:56;5.90;;;2.63;;
21833;SDS011;11079;51.092;3.458;2023-12-14T15:54:22;6.90;;;2.15;;
21833;SDS011;11079;51.092;3.458;2023-12-14T20:48:07;14.38;;;8.90;;
